Time;durP1;ratioP1;P1;durP2;ratioP2;P2;SDS_P1;SDS_P2;PMS_P1;PMS_P2;Temp;Humidity;BMP_temperature;BMP_pressure;BME280_temperature;BME280_humidity;BME280_pressure;Samples;Min_cycle;Max_cycle;Signal;HPM_P1;HPM_P2
2022/03/04 00:00:34;;;;;;;28.10;13.93;;;;;;;4.43;43.04;99762.34;4459111;32;32410;-83
2022/03/04 00:03:02;;;;;;;31.60;13.93;;;;;;;4.57;42.47;99769.00;4472587;32;34210;-83
2022/03/04 00:05:30;;;;;;;33.85;14.32;;;;;;;4.63;41.95;99774.09;4459888;32;34086;-83
2022/03/04 00:07:57;;;;;;;31.83;14.87;;;;;;;4.91;42.50;99772.69;4473766;31;34590;-85
2022/03/04 00:10:25;;;;;;;32.65;14.20;;;;;;;4.87;43.43;99777.97;4449295;32;32343;-85
2022/03/04 00:12:54;;;;;;;38.00;17.08;;;;;;;4.59;44.25;99776.81;4459708;32;33103;-85
2022/03/04 00:15:22;;;;;;;30.58;16.12;;;;;;;4.35;45.83;99786.84;4472271;32;33725;-85
2022/03/04 00:17:50;;;;;;;36.05;15.25;;;;;;;4.26;44.88;99783.53;4455083;31;32781;-85
2022/03/04 00:20:18;;;;;;;33.15;14.18;;;;;;;4.41;44.03;99780.63;4469854;32;33501;-85
2022/03/04 00:22:46;;;;;;;32.17;14.43;;;;;;;4.35;43.69;99786.00;4472479;32;33457;-85
2022/03/04 00:25:14;;;;;;;29.70;13.77;;;;;;;4.50;43.37;99788.31;4446763;32;33352;-85
2022/03/04 00:27:42;;;;;;;29.42;14.10;;;;;;;4.14;42.19;99779.41;4459662;32;33101;-85
2022/03/04 00:30:10;;;;;;;34.53;15.38;;;;;;;4.42;41.29;99784.16;4458083;32;32320;-85
2022/03/04 00:32:38;;;;;;;32.70;14.73;;;;;;;4.45;42.55;99781.44;4463437;31;33841;-85
2022/03/04 00:35:06;;;;;;;30.83;14.23;;;;;;;4.47;42.65;99769.22;4474992;31;33797;-86
2022/03/04 00:37:34;;;;;;;27.42;13.80;;;;;;;4.58;42.59;99764.63;4452984;32;32646;-85
2022/03/04 00:40:03;;;;;;;24.90;13.27;;;;;;;4.72;42.40;99770.44;4458103;32;33603;-85
2022/03/04 00:42:31;;;;;;;30.92;13.88;;;;;;;4.72;42.63;99757.37;4461912;31;32100;-85
2022/03/04 00:45:03;;;;;;;30.33;13.52;;;;;;;4.71;41.74;99763.50;4475660;31;32918;-84
2022/03/04 00:47:31;;;;;;;32.30;15.50;;;;;;;5.01;40.97;99758.50;4462023;31;32209;-84
2022/03/04 00:49:59;;;;;;;34.60;15.07;;;;;;;4.85;41.99;99769.31;4457403;32;32278;-84
2022/03/04 00:52:26;;;;;;;31.98;15.63;;;;;;;4.87;42.39;99757.03;4446530;32;32364;-84
2022/03/04 00:54:54;;;;;;;28.55;14.02;;;;;;;4.99;42.48;99758.56;4459916;32;33779;-84
2022/03/04 00:57:22;;;;;;;30.80;14.27;;;;;;;4.89;42.69;99754.41;4467640;32;33910;-83
2022/03/04 00:59:49;;;;;;;40.05;15.13;;;;;;;4.87;42.63;99757.03;4467467;32;34289;-83
2022/03/04 01:02:17;;;;;;;34.03;15.73;;;;;;;4.93;43.04;99760.44;4472981;32;36107;-82
2022/03/04 01:04:45;;;;;;;29.65;13.93;;;;;;;5.01;42.61;99758.50;4466186;31;33761;-82
2022/03/04 01:07:13;;;;;;;28.08;14.48;;;;;;;5.00;43.09;99762.03;4459097;31;33829;-82
2022/03/04 01:09:41;;;;;;;37.58;16.33;;;;;;;4.93;43.04;99753.44;4470754;32;33162;-84
2022/03/04 01:12:08;;;;;;;38.33;15.63;;;;;;;5.03;43.01;99751.47;4471486;32;33481;-83
2022/03/04 01:14:47;;;;;;;32.30;14.57;;;;;;;4.93;43.31;99760.44;4472117;32;32367;-83
2022/03/04 01:17:15;;;;;;;31.98;14.15;;;;;;;4.91;43.03;99754.38;4459115;31;34587;-84
2022/03/04 01:19:43;;;;;;;30.92;15.25;;;;;;;4.85;43.12;99758.84;4471367;32;33324;-83
2022/03/04 01:22:10;;;;;;;33.63;15.50;;;;;;;4.98;43.48;99753.34;4470704;32;34142;-83
2022/03/04 01:24:38;;;;;;;29.80;14.65;;;;;;;4.94;43.41;99749.06;4457741;32;33854;-83
2022/03/04 01:27:06;;;;;;;32.65;15.75;;;;;;;4.95;43.82;99753.41;4470264;32;33821;-84
2022/03/04 01:29:34;;;;;;;30.90;14.57;;;;;;;4.85;44.12;99743.16;4454528;32;32114;-82
2022/03/04 01:32:02;;;;;;;29.02;14.93;;;;;;;5.09;43.05;99740.91;4465962;31;33730;-82
2022/03/04 01:34:29;;;;;;;27.62;13.38;;;;;;;5.10;43.25;99745.22;4471670;32;33967;-82
2022/03/04 01:36:57;;;;;;;32.40;15.50;;;;;;;5.19;43.19;99739.78;4471953;32;34564;-82
2022/03/04 01:39:24;;;;;;;29.70;13.88;;;;;;;5.00;43.21;99744.56;4471438;32;33256;-82
2022/03/04 01:41:52;;;;;;;30.62;15.02;;;;;;;5.10;43.00;99742.63;4471605;32;33820;-81
2022/03/04 01:44:20;;;;;;;36.17;14.87;;;;;;;5.25;42.78;99739.63;4471578;32;34455;-82
2022/03/04 01:46:48;;;;;;;34.95;14.00;;;;;;;5.10;42.97;99740.00;4459321;32;33804;-81
2022/03/04 01:49:16;;;;;;;35.55;15.55;;;;;;;5.09;43.23;99736.53;4466935;32;33312;-81
2022/03/04 01:51:43;;;;;;;31.62;13.85;;;;;;;5.15;43.31;99735.50;4472546;32;33948;-81
2022/03/04 01:54:12;;;;;;;28.75;15.05;;;;;;;5.13;43.65;99738.19;4458656;32;33267;-82
2022/03/04 01:56:40;;;;;;;30.88;14.13;;;;;;;5.07;43.86;99740.06;4480831;32;31984;-82
2022/03/04 01:59:07;;;;;;;25.58;12.57;;;;;;;5.19;43.71;99737.16;4472202;31;33156;-83
2022/03/04 02:01:35;;;;;;;29.00;12.48;;;;;;;5.18;43.13;99732.84;4474373;31;33698;-83
2022/03/04 02:04:03;;;;;;;27.67;12.57;;;;;;;5.59;42.74;99737.06;4487529;31;34803;-83
2022/03/04 02:06:31;;;;;;;30.90;13.05;;;;;;;5.61;42.95;99742.28;4487295;31;32462;-83
2022/03/04 02:08:59;;;;;;;23.70;11.55;;;;;;;5.65;43.02;99739.56;4461152;31;32258;-83
2022/03/04 02:11:27;;;;;;;31.50;12.02;;;;;;;5.64;43.34;99744.81;4474280;31;32828;-83
2022/03/04 02:13:54;;;;;;;24.92;12.65;;;;;;;5.54;43.80;99748.56;4461320;31;34149;-83
2022/03/04 02:16:28;;;;;;;27.05;11.77;;;;;;;5.49;44.19;99740.81;4471385;32;33253;-83
2022/03/04 02:18:56;;;;;;;24.52;12.27;;;;;;;5.36;45.09;99749.84;4471851;32;33116;-84
2022/03/04 02:21:26;;;;;;;30.58;13.52;;;;;;;5.14;47.06;99744.28;4459046;31;32583;-83
2022/03/04 02:23:53;;;;;;;29.87;12.98;;;;;;;4.65;50.45;99749.66;4462691;32;34774;-82
2022/03/04 02:26:21;;;;;;;26.73;12.30;;;;;;;5.14;50.05;99744.28;4464567;32;34499;-83
2022/03/04 02:28:50;;;;;;;26.75;12.73;;;;;;;5.15;50.66;99745.97;4454916;32;32408;-83
2022/03/04 02:31:19;;;;;;;25.77;11.30;;;;;;;5.16;50.80;99746.84;4448312;32;33118;-83
2022/03/04 02:33:50;;;;;;;27.25;12.57;;;;;;;5.17;51.02;99738.09;4448507;32;34324;-82
2022/03/04 02:36:17;;;;;;;22.83;11.68;;;;;;;5.32;50.59;99741.22;4454140;31;33034;-82
2022/03/04 02:38:45;;;;;;;25.52;13.45;;;;;;;5.28;50.86;99750.06;4457979;32;33558;-82
2022/03/04 02:41:13;;;;;;;27.92;13.38;;;;;;;5.74;49.74;99750.69;4471115;32;33770;-82
2022/03/04 02:43:40;;;;;;;27.23;12.27;;;;;;;5.72;49.66;99753.38;4445870;32;33388;-82
2022/03/04 02:46:08;;;;;;;24.40;12.82;;;;;;;5.77;49.50;99751.50;4458535;32;32859;-82
2022/03/04 02:48:36;;;;;;;27.05;12.90;;;;;;;5.67;49.66;99755.25;4445958;32;32519;-82
2022/03/04 02:51:03;;;;;;;32.85;14.40;;;;;;;5.87;48.99;99750.34;4458600;32;33487;-82
2022/03/04 02:53:31;;;;;;;29.17;12.85;;;;;;;5.88;48.89;99754.69;4461478;32;33775;-82
2022/03/04 02:55:59;;;;;;;25.80;12.88;;;;;;;5.73;49.17;99751.59;4470281;32;33780;-83
2022/03/04 02:58:27;;;;;;;23.15;11.20;;;;;;;5.83;48.87;99751.31;4470308;32;33206;-83
2022/03/04 03:00:55;;;;;;;25.95;14.05;;;;;;;5.55;49.56;99755.53;4470548;32;33879;-83
2022/03/04 03:03:23;;;;;;;29.52;14.02;;;;;;;5.67;49.13;99755.25;4450151;32;32449;-83
2022/03/04 03:05:50;;;;;;;31.12;15.10;;;;;;;5.81;48.68;99758.38;4463865;32;34592;-83
2022/03/04 03:08:18;;;;;;;29.85;12.45;;;;;;;5.66;48.88;99758.75;4457306;32;33353;-83
2022/03/04 03:10:46;;;;;;;24.60;13.10;;;;;;;5.29;49.95;99767.47;4460270;31;33277;-82
2022/03/04 03:13:14;;;;;;;22.20;12.43;;;;;;;5.05;50.77;99770.63;4472226;31;33859;-82
2022/03/04 03:15:41;;;;;;;27.80;13.48;;;;;;;5.31;50.12;99768.28;4454606;32;32750;-82
2022/03/04 03:18:09;;;;;;;26.45;13.73;;;;;;;5.42;49.68;99767.22;4458299;31;33506;-82
2022/03/04 03:20:37;;;;;;;27.77;13.62;;;;;;;5.20;50.50;99769.44;4458080;32;33650;-82
2022/03/04 03:23:05;;;;;;;29.33;13.35;;;;;;;5.30;50.15;99761.34;4452281;31;33396;-82
2022/03/04 03:25:32;;;;;;;29.27;13.30;;;;;;;5.63;49.29;99766.69;4458646;32;33418;-82
2022/03/04 03:28:00;;;;;;;27.08;13.23;;;;;;;5.48;49.73;99765.28;4456994;32;33500;-82
2022/03/04 03:30:29;;;;;;;24.77;12.37;;;;;;;5.90;48.59;99775.62;4462930;32;32421;-82
2022/03/04 03:32:57;;;;;;;33.38;15.10;;;;;;;5.80;48.72;99767.16;4460866;31;31697;-82
2022/03/04 03:35:25;;;;;;;26.27;12.73;;;;;;;5.58;49.30;99781.66;4456584;32;33800;-82
2022/03/04 03:37:53;;;;;;;30.83;13.68;;;;;;;5.66;49.14;99779.72;4462817;32;32626;-82
2022/03/04 03:40:21;;;;;;;27.58;13.15;;;;;;;5.75;48.76;99774.25;4467420;31;33017;-82
2022/03/04 03:42:48;;;;;;;28.15;13.60;;;;;;;5.82;48.50;99770.56;4462387;32;32802;-82
2022/03/04 03:45:16;;;;;;;25.55;13.48;;;;;;;5.77;48.64;99767.22;4469790;32;33432;-83
2022/03/04 03:47:44;;;;;;;31.15;13.88;;;;;;;5.78;48.56;99782.03;4451724;32;31697;-83
2022/03/04 03:50:12;;;;;;;26.33;13.13;;;;;;;5.77;48.20;99779.44;4457486;32;33151;-83
2022/03/04 03:52:40;;;;;;;26.10;12.55;;;;;;;5.71;48.07;99777.84;4458703;32;33896;-83
2022/03/04 03:55:08;;;;;;;31.67;13.35;;;;;;;5.51;48.53;99769.62;4458528;32;33225;-82
2022/03/04 03:57:36;;;;;;;23.23;12.02;;;;;;;5.49;48.57;99776.62;4472470;32;33529;-82
2022/03/04 04:00:04;;;;;;;33.03;13.15;;;;;;;5.25;49.22;99778.06;4463784;32;33814;-82
2022/03/04 04:02:38;;;;;;;26.98;14.00;;;;;;;5.47;48.66;99778.44;4463438;32;32526;-82
2022/03/04 04:05:08;;;;;;;30.40;14.45;;;;;;;5.36;49.02;99778.66;4447176;32;34393;-83
2022/03/04 04:07:37;;;;;;;29.50;15.48;;;;;;;5.47;48.72;99778.44;4460408;32;32751;-82
2022/03/04 04:10:05;;;;;;;30.60;14.93;;;;;;;5.08;49.72;99779.28;4458422;32;32522;-83
2022/03/04 04:12:33;;;;;;;29.77;14.57;;;;;;;5.07;50.01;99774.06;4458944;32;33940;-82
2022/03/04 04:15:01;;;;;;;25.65;13.20;;;;;;;5.09;50.00;99778.41;4457076;32;33155;-82
2022/03/04 04:17:28;;;;;;;25.75;14.20;;;;;;;5.23;49.62;99774.63;4455375;32;32215;-82
2022/03/04 04:19:56;;;;;;;29.42;14.05;;;;;;;5.29;49.36;99779.72;4471678;32;33455;-82
2022/03/04 04:22:24;;;;;;;29.10;13.90;;;;;;;5.24;49.72;99778.94;4471265;32;33652;-82
2022/03/04 04:24:51;;;;;;;24.95;14.20;;;;;;;5.10;50.19;99784.50;4471408;32;34272;-82
2022/03/04 04:27:19;;;;;;;25.58;12.80;;;;;;;5.11;50.18;99780.97;4459168;32;32200;-82
2022/03/04 04:29:47;;;;;;;26.55;13.10;;;;;;;5.03;50.30;99793.34;4458322;32;33991;-82
2022/03/04 04:32:14;;;;;;;31.48;14.55;;;;;;;5.08;50.15;99795.00;4457944;32;33640;-83
2022/03/04 04:34:42;;;;;;;25.25;14.15;;;;;;;4.95;50.29;99790.91;4460297;32;33613;-82
2022/03/04 04:37:10;;;;;;;33.05;14.52;;;;;;;4.73;50.97;99795.72;4471247;32;33410;-83
2022/03/04 04:39:38;;;;;;;30.35;13.73;;;;;;;4.82;50.86;99790.28;4465583;32;33982;-82
2022/03/04 04:42:05;;;;;;;27.15;13.70;;;;;;;4.97;50.54;99790.88;4459913;32;34890;-82
2022/03/04 04:44:33;;;;;;;27.27;14.77;;;;;;;5.03;50.46;99795.97;4453728;32;33723;-82
2022/03/04 04:47:00;;;;;;;28.45;14.63;;;;;;;4.90;50.61;99803.22;4467836;32;33684;-82
2022/03/04 04:49:29;;;;;;;30.02;13.65;;;;;;;4.53;51.42;99800.47;4449244;32;32764;-82
2022/03/04 04:51:56;;;;;;;30.42;14.45;;;;;;;4.72;50.94;99809.69;4471616;32;34415;-82
2022/03/04 04:54:24;;;;;;;31.65;14.48;;;;;;;4.78;50.98;99813.94;4471194;32;33865;-82
2022/03/04 04:56:52;;;;;;;28.27;13.73;;;;;;;4.84;50.60;99813.78;4471059;32;31614;-82
2022/03/04 04:59:19;;;;;;;28.80;13.98;;;;;;;4.85;50.23;99826.88;4457787;32;32806;-81
2022/03/04 05:01:47;;;;;;;28.83;14.15;;;;;;;5.01;49.99;99826.56;4457233;32;34710;-81
2022/03/04 05:04:15;;;;;;;27.75;14.57;;;;;;;4.87;50.32;99829.44;4452243;32;33402;-81
2022/03/04 05:06:43;;;;;;;28.35;13.02;;;;;;;3.93;53.17;99837.25;4470792;32;33701;-82
2022/03/04 05:09:10;;;;;;;33.75;13.68;;;;;;;4.09;52.85;99841.34;4470711;32;34707;-82
2022/03/04 05:11:38;;;;;;;26.40;13.30;;;;;;;4.09;52.61;99843.97;4457821;31;34008;-82
2022/03/04 05:14:06;;;;;;;33.20;13.98;;;;;;;4.16;52.17;99844.72;4484935;32;33869;-82
2022/03/04 05:16:33;;;;;;;32.90;13.35;;;;;;;4.16;52.28;99842.97;4450939;32;32743;-82
2022/03/04 05:19:01;;;;;;;28.98;13.40;;;;;;;4.10;52.54;99856.13;4471143;32;34366;-82
2022/03/04 05:21:32;;;;;;;28.73;13.15;;;;;;;3.88;53.63;99857.34;4471175;32;33598;-82
2022/03/04 05:24:00;;;;;;;31.48;13.73;;;;;;;4.11;52.95;99848.25;4458791;32;32847;-82
2022/03/04 05:26:30;;;;;;;30.35;14.40;;;;;;;4.22;52.92;99855.91;4452152;32;32172;-82
2022/03/04 05:28:59;;;;;;;31.30;13.93;;;;;;;4.37;52.45;99858.28;4465423;32;33766;-83
2022/03/04 05:31:27;;;;;;;24.23;13.57;;;;;;;4.33;52.49;99861.84;4465117;32;33792;-82
2022/03/04 05:33:55;;;;;;;31.33;14.57;;;;;;;4.32;52.84;99860.12;4457742;32;33668;-83
2022/03/04 05:36:23;;;;;;;27.85;15.25;;;;;;;4.22;53.13;99862.91;4466011;32;32416;-83
2022/03/04 05:38:51;;;;;;;29.17;13.45;;;;;;;4.35;53.08;99867.03;4459438;31;33425;-82
2022/03/04 05:41:18;;;;;;;32.72;14.70;;;;;;;4.43;52.77;99867.78;4449937;31;33060;-83
2022/03/04 05:43:47;;;;;;;30.67;14.35;;;;;;;4.33;53.08;99874.91;4470422;32;33591;-82
2022/03/04 05:46:59;;;;;;;31.33;14.27;;;;;;;4.49;52.67;99874.62;4471187;32;33316;-82
2022/03/04 05:49:27;;;;;;;29.57;13.57;;;;;;;4.55;52.65;99884.97;4471324;32;33017;-82
2022/03/04 05:51:55;;;;;;;27.25;14.00;;;;;;;4.28;53.38;99887.19;4470196;32;32623;-82
2022/03/04 05:54:24;;;;;;;32.38;15.30;;;;;;;4.52;52.91;99890.28;4463100;32;33357;-82
2022/03/04 05:56:51;;;;;;;26.42;13.60;;;;;;;4.53;52.74;99894.63;4448648;32;33030;-82
2022/03/04 05:59:19;;;;;;;35.70;16.73;;;;;;;4.75;52.06;99890.72;4457690;32;35042;-83
2022/03/04 06:01:47;;;;;;;39.38;18.50;;;;;;;4.53;52.75;99895.47;4457220;32;33885;-82
2022/03/04 06:04:15;;;;;;;41.58;17.70;;;;;;;4.64;52.67;99895.28;4458961;32;33504;-82
2022/03/04 06:06:43;;;;;;;34.65;18.20;;;;;;;4.70;52.82;99899.53;4458372;32;33438;-82
2022/03/04 06:09:10;;;;;;;36.65;18.20;;;;;;;4.78;52.54;99898.50;4460072;31;33178;-82
2022/03/04 06:11:38;;;;;;;43.63;18.87;;;;;;;4.83;52.55;99894.03;4456907;32;34697;-83
2022/03/04 06:14:06;;;;;;;34.15;18.83;;;;;;;4.81;52.85;99897.59;4461282;32;34627;-83
2022/03/04 06:16:34;;;;;;;38.35;17.65;;;;;;;4.74;53.64;99902.06;4449425;32;33650;-83
2022/03/04 06:19:02;;;;;;;33.72;15.80;;;;;;;5.01;52.37;99908.53;4471166;32;33520;-83
2022/03/04 06:21:29;;;;;;;43.78;18.45;;;;;;;4.86;52.90;99912.31;4456311;32;33726;-83
2022/03/04 06:23:57;;;;;;;37.28;17.40;;;;;;;4.77;53.30;99914.22;4458549;32;33513;-83
2022/03/04 06:26:25;;;;;;;34.53;16.58;;;;;;;4.96;52.89;99917.37;4458657;32;32287;-83
2022/03/04 06:28:52;;;;;;;36.67;16.65;;;;;;;4.81;53.23;99918.53;4458211;32;32684;-83
2022/03/04 06:31:20;;;;;;;35.65;17.45;;;;;;;4.83;53.26;99920.19;4445405;32;33531;-83
2022/03/04 06:33:48;;;;;;;38.33;16.55;;;;;;;5.16;52.40;99930.94;4454593;32;33480;-85
2022/03/04 06:36:15;;;;;;;38.15;16.83;;;;;;;5.19;52.06;99930.03;4450749;32;32444;-85
2022/03/04 06:38:44;;;;;;;38.97;16.55;;;;;;;5.02;52.81;99938.19;4450744;32;33369;-85
2022/03/04 06:41:13;;;;;;;38.13;16.12;;;;;;;5.20;52.27;99929.97;4459883;32;33888;-85
2022/03/04 06:43:42;;;;;;;29.58;15.23;;;;;;;5.10;52.63;99931.91;4458042;32;32724;-85
2022/03/04 06:46:09;;;;;;;35.05;16.83;;;;;;;5.26;52.22;99939.47;4456362;32;32655;-85
2022/03/04 06:48:38;;;;;;;39.97;17.05;;;;;;;5.08;52.82;99938.94;4461039;31;32800;-85
2022/03/04 06:51:24;;;;;;;37.53;17.12;;;;;;;5.38;51.82;99936.59;4455300;31;33321;-85
2022/03/04 06:53:52;;;;;;;41.42;16.92;;;;;;;5.14;52.80;99944.06;4470553;31;34205;-85
2022/03/04 06:56:20;;;;;;;37.42;18.62;;;;;;;5.37;51.80;99934.88;4450680;32;33608;-85
2022/03/04 06:59:09;;;;;;;31.92;16.60;;;;;;;5.33;52.30;99941.94;4447397;32;33102;-85
2022/03/04 07:01:41;;;;;;;35.70;17.02;;;;;;;5.45;52.19;99939.94;4454578;31;34214;-86
2022/03/04 07:04:08;;;;;;;29.33;16.15;;;;;;;5.63;51.62;99936.94;4457552;32;33497;-84
2022/03/04 07:06:36;;;;;;;32.45;17.73;;;;;;;5.68;51.32;99940.34;4449657;32;32480;-86
2022/03/04 07:09:04;;;;;;;40.12;16.87;;;;;;;5.62;51.30;99941.34;4449044;32;33975;-85
2022/03/04 07:11:31;;;;;;;33.05;16.10;;;;;;;5.88;51.07;99945.13;4450568;32;33088;-85
2022/03/04 07:14:02;;;;;;;40.72;17.70;;;;;;;5.90;50.96;99945.97;4457785;32;34115;-85
2022/03/04 07:16:30;;;;;;;34.17;15.60;;;;;;;6.04;50.67;99953.56;4458445;32;34222;-85
2022/03/04 07:18:58;;;;;;;29.35;15.60;;;;;;;6.24;50.26;99948.72;4457925;32;34598;-85
2022/03/04 07:21:26;;;;;;;33.08;17.27;;;;;;;6.64;48.41;99948.59;4444895;32;33334;-85
2022/03/04 07:23:57;;;;;;;35.13;16.75;;;;;;;6.25;49.42;99941.69;4458486;32;33722;-85
2022/03/04 07:26:25;;;;;;;28.95;16.25;;;;;;;6.17;50.12;99954.97;4446438;32;33043;-85
2022/03/04 07:28:54;;;;;;;34.45;17.27;;;;;;;6.49;49.24;99950.75;4459897;32;33182;-85
2022/03/04 07:31:24;;;;;;;34.75;17.35;;;;;;;6.50;49.35;99960.31;4460723;32;34314;-85
2022/03/04 07:33:52;;;;;;;35.88;17.12;;;;;;;6.44;49.48;99963.97;4446842;32;33183;-85
2022/03/04 07:36:19;;;;;;;31.15;15.80;;;;;;;6.79;48.80;99959.59;4446697;32;33745;-84
2022/03/04 07:43:08;;;;;;;35.72;15.00;;;;;;;6.59;47.38;99963.59;4487205;32;34704;-84
2022/03/04 07:45:36;;;;;;;34.72;17.27;;;;;;;6.09;48.55;99967.44;4446976;32;32369;-85
2022/03/04 07:48:04;;;;;;;43.25;22.13;;;;;;;6.27;48.07;99976.63;4459737;32;33886;-84
2022/03/04 07:50:31;;;;;;;35.17;18.02;;;;;;;5.76;49.34;99975.09;4458973;32;33309;-83
2022/03/04 07:52:59;;;;;;;40.83;18.05;;;;;;;5.52;50.17;99983.47;4472813;32;33290;-83
2022/03/04 07:55:27;;;;;;;33.90;16.45;;;;;;;6.19;48.62;99979.44;4459604;32;33014;-82
2022/03/04 07:57:55;;;;;;;34.65;16.08;;;;;;;5.87;49.91;99978.34;4472542;32;34287;-82
2022/03/04 08:00:26;;;;;;;31.30;14.87;;;;;;;6.03;49.11;99988.50;4472505;32;33475;-82
2022/03/04 08:02:54;;;;;;;30.37;14.63;;;;;;;5.77;50.83;100000.41;4462254;32;34722;-82
2022/03/04 08:05:22;;;;;;;30.80;15.50;;;;;;;5.28;52.62;100004.00;4459734;31;33632;-82
2022/03/04 08:07:49;;;;;;;30.23;14.60;;;;;;;5.31;53.10;100009.16;4488276;31;33149;-82
2022/03/04 08:10:17;;;;;;;34.72;15.65;;;;;;;5.37;52.89;100003.81;4481961;32;33827;-82
2022/03/04 08:12:45;;;;;;;36.47;17.12;;;;;;;4.86;54.83;100011.72;4472362;32;33409;-82
2022/03/04 08:15:13;;;;;;;32.92;15.98;;;;;;;4.77;55.77;100013.63;4459380;32;33124;-82
2022/03/04 08:17:41;;;;;;;31.15;15.63;;;;;;;4.29;57.64;100019.63;4459566;32;34154;-82
2022/03/04 08:20:09;;;;;;;32.90;14.93;;;;;;;4.81;56.79;100018.78;4486604;32;33784;-82
2022/03/04 08:22:38;;;;;;;26.02;14.38;;;;;;;4.86;56.44;100022.19;4485536;32;33946;-82
2022/03/04 08:25:06;;;;;;;31.37;15.57;;;;;;;5.00;56.23;100018.47;4472460;32;33891;-82
2022/03/04 08:27:40;;;;;;;39.65;16.23;;;;;;;4.49;57.61;100026.28;4485424;32;34023;-82
2022/03/04 08:30:10;;;;;;;33.25;15.98;;;;;;;4.67;57.08;100022.53;4485330;32;33656;-82
2022/03/04 08:32:38;;;;;;;35.38;17.40;;;;;;;4.33;57.84;100031.75;4486594;32;33611;-82
2022/03/04 08:35:05;;;;;;;35.67;16.12;;;;;;;4.60;57.31;100032.22;4459049;32;34475;-82
2022/03/04 08:37:34;;;;;;;38.08;16.87;;;;;;;4.98;55.99;100025.47;4459010;32;33180;-83
2022/03/04 08:40:04;;;;;;;34.85;18.85;;;;;;;4.93;56.13;100032.53;4472257;32;34775;-82
2022/03/04 08:42:32;;;;;;;35.88;16.08;;;;;;;4.98;56.25;100026.34;4459662;32;34643;-82
2022/03/04 08:45:00;;;;;;;33.90;18.02;;;;;;;4.79;56.93;100028.41;4472307;32;32713;-83
2022/03/04 08:47:28;;;;;;;31.60;16.67;;;;;;;5.32;55.76;100026.63;4459249;32;32367;-82
2022/03/04 08:49:55;;;;;;;36.63;17.40;;;;;;;5.51;54.96;100034.13;4457124;31;32529;-82
2022/03/04 08:52:24;;;;;;;33.47;16.73;;;;;;;5.76;54.06;100024.88;4477108;32;34654;-82
2022/03/04 08:54:51;;;;;;;35.65;17.08;;;;;;;5.78;54.16;100033.56;4458981;32;33763;-82
2022/03/04 08:57:19;;;;;;;29.87;15.98;;;;;;;5.68;54.63;100025.94;4459251;32;32932;-82
2022/03/04 08:59:47;;;;;;;37.25;17.12;;;;;;;6.10;53.55;100021.56;4459465;32;34618;-83
2022/03/04 09:02:14;;;;;;;40.70;16.17;;;;;;;5.88;54.22;100031.59;4458967;32;34006;-84
2022/03/04 09:04:42;;;;;;;29.50;15.38;;;;;;;6.30;52.24;100029.84;4460812;32;33875;-90
2022/03/04 09:07:15;;;;;;;28.50;14.77;;;;;;;6.35;51.78;100028.00;4462829;32;33590;-86
2022/03/04 09:09:43;;;;;;;27.67;16.30;;;;;;;6.59;51.43;100025.69;4470610;32;33964;-87
2022/03/04 09:12:11;;;;;;;36.45;16.75;;;;;;;6.44;51.92;100031.31;4457926;32;34439;-87
2022/03/04 09:14:39;;;;;;;33.30;16.52;;;;;;;6.40;52.54;100022.63;4445265;32;33427;-84
2022/03/04 09:17:06;;;;;;;35.67;18.12;;;;;;;6.76;51.48;100026.16;4465801;32;32335;-83
2022/03/04 09:19:35;;;;;;;28.02;15.65;;;;;;;6.82;51.19;100022.50;4463880;31;33723;-88
2022/03/04 09:22:23;;;;;;;31.02;16.60;;;;;;;6.21;51.65;100032.69;4478305;32;34473;-89
2022/03/04 09:24:50;;;;;;;32.88;17.98;;;;;;;6.86;50.49;100019.78;4458653;32;34029;-88
2022/03/04 09:27:18;;;;;;;36.17;18.10;;;;;;;6.74;50.62;100027.06;4465332;31;32779;-87
2022/03/04 09:29:46;;;;;;;33.38;16.60;;;;;;;7.32;49.14;100018.59;4460854;32;32554;-87
2022/03/04 09:32:14;;;;;;;28.00;15.85;;;;;;;7.35;49.09;100021.13;4452213;32;34159;-87
2022/03/04 09:34:42;;;;;;;30.55;16.35;;;;;;;7.58;47.31;100031.00;4464979;32;33879;-87
2022/03/04 09:37:10;;;;;;;28.60;13.75;;;;;;;7.43;47.40;100034.91;4458507;32;32967;-87
2022/03/04 09:39:38;;;;;;;30.62;15.02;;;;;;;7.53;48.00;100038.16;4466354;31;33489;-87
2022/03/04 09:42:07;;;;;;;32.30;16.02;;;;;;;7.80;47.54;100041.78;4462874;32;33140;-87
2022/03/04 09:44:35;;;;;;;30.95;15.35;;;;;;;7.59;46.63;100043.22;4472400;32;34518;-87
2022/03/04 09:47:05;;;;;;;27.42;13.52;;;;;;;7.63;46.58;100039.63;4460693;31;32042;-87
2022/03/04 09:49:35;;;;;;;23.70;13.62;;;;;;;7.33;46.92;100043.94;4472635;32;36530;-87
2022/03/04 09:52:05;;;;;;;30.70;12.55;;;;;;;7.44;45.89;100041.88;4461730;32;32440;-87
2022/03/04 09:54:33;;;;;;;24.00;12.68;;;;;;;7.55;45.93;100044.25;4451965;31;33093;-87
2022/03/04 09:57:01;;;;;;;26.85;13.45;;;;;;;7.62;46.22;100042.28;4473926;32;33885;-87
2022/03/04 09:59:29;;;;;;;25.67;14.05;;;;;;;7.89;45.36;100036.25;4470654;32;33528;-87
2022/03/04 10:02:00;;;;;;;29.48;14.73;;;;;;;7.96;45.10;100032.53;4458853;31;33770;-87
2022/03/04 10:04:28;;;;;;;31.17;13.93;;;;;;;7.63;46.59;100033.50;4457234;32;33467;-87
2022/03/04 10:07:14;;;;;;;26.02;15.05;;;;;;;7.68;47.17;100037.72;4452276;32;32524;-87
2022/03/04 10:09:43;;;;;;;29.45;15.10;;;;;;;8.15;46.02;100032.84;4447639;32;33003;-87
2022/03/04 10:12:14;;;;;;;29.60;14.73;;;;;;;8.25;45.91;100032.56;4461129;32;33347;-87
2022/03/04 10:14:57;;;;;;;28.95;16.20;;;;;;;8.05;46.19;100027.91;4464563;32;32965;-87
2022/03/04 10:17:31;;;;;;;29.02;14.95;;;;;;;8.17;46.17;100032.81;4457838;32;32340;-87
2022/03/04 10:20:03;;;;;;;28.48;15.32;;;;;;;8.13;46.38;100033.81;4461662;32;33928;-88
2022/03/04 10:22:42;;;;;;;30.10;15.10;;;;;;;8.34;45.60;100027.91;4457950;31;33769;-87
2022/03/04 10:25:26;;;;;;;28.35;14.55;;;;;;;8.75;45.45;100028.41;4471421;32;32710;-87
2022/03/04 10:27:53;;;;;;;32.72;16.73;;;;;;;8.97;43.21;100018.88;4473093;31;33295;-87
2022/03/04 10:30:32;;;;;;;33.00;16.95;;;;;;;8.64;44.37;100019.97;4447681;32;34000;-88
2022/03/04 10:33:07;;;;;;;32.70;16.95;;;;;;;8.75;45.23;100017.00;4463020;32;33819;-87
2022/03/04 10:35:37;;;;;;;30.00;15.90;;;;;;;8.85;44.92;100014.00;4471748;32;32703;-87
2022/03/04 10:38:06;;;;;;;36.47;18.08;;;;;;;9.17;43.60;100019.97;4447227;32;32739;-87
2022/03/04 10:40:37;;;;;;;29.67;16.37;;;;;;;9.02;43.88;100010.81;4457173;32;32951;-87
2022/03/04 10:43:06;;;;;;;31.50;17.10;;;;;;;8.79;44.54;100018.62;4453265;32;33076;-87
2022/03/04 10:45:43;;;;;;;34.17;18.55;;;;;;;8.79;44.05;100019.50;4466984;32;33559;-87
2022/03/04 10:48:15;;;;;;;37.65;19.40;;;;;;;8.74;43.46;100010.03;4453232;31;33150;-87
2022/03/04 10:50:54;;;;;;;32.58;18.55;;;;;;;8.71;44.49;100016.25;4456881;32;34248;-87
2022/03/04 10:53:24;;;;;;;49.25;25.45;;;;;;;8.49;45.23;100015.19;4453724;31;34182;-87
2022/03/04 10:56:02;;;;;;;41.70;20.58;;;;;;;8.83;44.12;100009.69;4470401;32;33946;-87
2022/03/04 10:58:38;;;;;;;35.00;19.48;;;;;;;8.59;45.39;100011.34;4457649;32;33102;-88
2022/03/04 11:01:12;;;;;;;40.90;21.08;;;;;;;8.88;45.32;100007.81;4458045;32;33228;-87
2022/03/04 11:03:41;;;;;;;43.95;20.70;;;;;;;8.90;45.61;100016.50;4472856;32;33567;-88
2022/03/04 11:06:12;;;;;;;38.90;20.48;;;;;;;8.85;45.86;100014.00;4463996;32;33367;-87
2022/03/04 11:08:40;;;;;;;36.28;20.23;;;;;;;8.94;45.22;100007.59;4474212;32;33214;-87
2022/03/04 11:11:09;;;;;;;38.60;19.17;;;;;;;9.17;44.77;100012.06;4459859;32;33035;-88
2022/03/04 11:13:37;;;;;;;36.53;18.65;;;;;;;8.89;44.90;100010.37;4451924;31;33129;-87
2022/03/04 11:16:06;;;;;;;39.10;19.60;;;;;;;8.51;45.11;100016.03;4462442;32;33207;-87
2022/03/04 11:18:35;;;;;;;39.00;19.00;;;;;;;8.36;46.17;100015.59;4461988;31;32935;-88
2022/03/04 11:21:04;;;;;;;38.22;18.87;;;;;;;8.24;46.89;100010.69;4462191;31;33790;-89
2022/03/04 11:23:34;;;;;;;37.67;18.67;;;;;;;8.12;48.33;100016.31;4455055;31;33477;-89
2022/03/04 11:26:08;;;;;;;36.30;19.62;;;;;;;8.61;46.11;100004.28;4466636;31;33563;-88
2022/03/04 11:28:38;;;;;;;36.90;19.77;;;;;;;8.55;46.63;100009.75;4453554;31;32711;-89
2022/03/04 11:31:09;;;;;;;36.13;19.17;;;;;;;8.86;45.54;99999.06;4474843;32;33352;-89
2022/03/04 11:33:58;;;;;;;33.67;18.27;;;;;;;8.85;45.87;100003.47;4472186;32;34028;-88